Time;durP1;ratioP1;P1;durP2;ratioP2;P2;SDS_P1;SDS_P2;PMS_P1;PMS_P2;Temp;Humidity;BMP_temperature;BMP_pressure;BME280_temperature;BME280_humidity;BME280_pressure;Samples;Min_cycle;Max_cycle;Signal;HPM_P1;HPM_P2
2023/05/22 00:00:55;;;;;;;24.38;20.45;;;17.30;99.90;;;;;;5069654;28;20052;-84
2023/05/22 00:03:23;;;;;;;25.92;22.80;;;17.40;99.90;;;;;;5067610;28;20130;-84
2023/05/22 00:05:49;;;;;;;25.73;20.48;;;17.30;99.90;;;;;;5065878;28;20101;-84
2023/05/22 00:08:15;;;;;;;22.85;20.35;;;17.30;99.90;;;;;;5089035;28;20036;-85
2023/05/22 00:10:40;;;;;;;26.35;21.25;;;17.30;99.90;;;;;;5088951;28;20093;-84
2023/05/22 00:13:06;;;;;;;24.42;21.83;;;17.30;99.90;;;;;;5069311;28;20055;-84
2023/05/22 00:15:32;;;;;;;25.52;20.90;;;17.30;99.90;;;;;;5053897;28;20479;-84
2023/05/22 00:17:58;;;;;;;25.38;22.65;;;17.30;99.90;;;;;;5070121;28;20036;-84
2023/05/22 00:20:23;;;;;;;27.27;22.00;;;17.20;99.90;;;;;;5067443;28;20044;-84
2023/05/22 00:22:49;;;;;;;26.65;23.60;;;17.20;99.90;;;;;;5070411;28;20413;-85
2023/05/22 00:25:18;;;;;;;28.48;23.88;;;17.50;99.90;;;;;;5069162;28;20051;-84
2023/05/22 00:27:43;;;;;;;31.33;24.13;;;17.20;99.90;;;;;;5068001;28;20074;-84
2023/05/22 00:30:09;;;;;;;29.08;24.33;;;17.20;99.90;;;;;;5049207;28;20427;-84
2023/05/22 00:32:35;;;;;;;28.02;24.90;;;17.20;99.90;;;;;;5060272;28;20116;-84
2023/05/22 00:35:01;;;;;;;30.77;23.13;;;17.40;99.90;;;;;;5069114;28;20044;-84
2023/05/22 00:37:27;;;;;;;29.35;25.83;;;17.20;99.90;;;;;;5068044;28;20126;-84
2023/05/22 00:39:52;;;;;;;30.92;25.27;;;17.20;99.90;;;;;;5068604;28;20040;-84
2023/05/22 00:42:18;;;;;;;28.77;25.50;;;17.40;99.90;;;;;;5053031;28;20067;-84
2023/05/22 00:44:43;;;;;;;29.05;25.08;;;17.20;99.90;;;;;;5084517;28;20051;-83
2023/05/22 00:47:09;;;;;;;30.65;26.20;;;17.20;99.90;;;;;;5086266;28;20091;-84
2023/05/22 00:49:35;;;;;;;28.40;24.10;;;17.20;99.90;;;;;;5085977;28;20047;-84
2023/05/22 00:52:01;;;;;;;29.13;24.75;;;17.10;99.90;;;;;;5068625;28;20052;-84
2023/05/22 00:54:29;;;;;;;32.40;25.20;;;17.10;99.90;;;;;;5065529;28;20044;-84
2023/05/22 00:56:55;;;;;;;31.45;26.55;;;17.10;99.90;;;;;;5041671;28;20051;-85
2023/05/22 00:59:22;;;;;;;28.13;25.05;;;17.10;99.90;;;;;;5067688;28;20561;-85
2023/05/22 01:01:48;;;;;;;32.25;26.35;;;17.10;99.90;;;;;;5083582;28;20054;-84
2023/05/22 01:04:14;;;;;;;32.20;26.23;;;17.10;99.90;;;;;;5068193;28;20040;-85
2023/05/22 01:06:40;;;;;;;30.33;25.00;;;17.10;99.90;;;;;;5051190;28;20065;-84
2023/05/22 01:09:06;;;;;;;29.85;26.63;;;17.10;99.90;;;;;;5085232;28;20043;-84
2023/05/22 01:11:43;;;;;;;31.08;25.80;;;17.10;99.90;;;;;;5068521;28;20044;-84
2023/05/22 01:14:28;;;;;;;29.27;25.73;;;17.30;99.90;;;;;;5086840;28;20032;-84
2023/05/22 01:17:27;;;;;;;31.65;26.50;;;17.10;99.90;;;;;;5068533;28;20302;-84
2023/05/22 01:20:18;;;;;;;32.47;26.63;;;17.00;99.90;;;;;;5060771;28;20048;-84
2023/05/22 01:23:33;;;;;;;31.42;26.80;;;17.00;99.90;;;;;;5081645;28;20486;-83
2023/05/22 01:26:14;;;;;;;31.75;26.60;;;17.00;99.90;;;;;;5068315;28;20406;-84
2023/05/22 01:29:15;;;;;;;30.25;25.45;;;16.90;99.90;;;;;;5066029;28;20084;-84
2023/05/22 01:31:44;;;;;;;30.77;25.33;;;17.00;99.90;;;;;;5041501;28;20143;-84
2023/05/22 01:34:11;;;;;;;30.77;26.95;;;16.90;99.90;;;;;;5051241;28;20113;-84
2023/05/22 01:36:37;;;;;;;32.75;27.08;;;17.00;99.90;;;;;;5069603;28;20109;-84
2023/05/22 01:39:05;;;;;;;30.00;25.83;;;16.90;99.90;;;;;;5050106;28;20454;-84
2023/05/22 01:41:34;;;;;;;31.13;26.77;;;16.90;99.90;;;;;;5069536;28;20474;-84
2023/05/22 01:44:00;;;;;;;34.10;26.60;;;16.90;99.90;;;;;;5067272;28;20047;-85
2023/05/22 01:46:30;;;;;;;31.50;27.38;;;16.90;99.90;;;;;;5066177;28;20502;-84
2023/05/22 01:48:56;;;;;;;33.10;28.10;;;16.90;99.90;;;;;;5068328;28;20496;-84
2023/05/22 01:51:52;;;;;;;31.50;26.05;;;16.90;99.90;;;;;;5069183;28;20083;-84
2023/05/22 01:54:41;;;;;;;27.45;24.38;;;16.90;99.90;;;;;;5073045;28;20052;-84
2023/05/22 01:57:31;;;;;;;37.42;26.92;;;16.80;99.90;;;;;;5067886;28;20043;-84
2023/05/22 02:00:14;;;;;;;32.00;26.98;;;16.90;99.90;;;;;;5050444;28;20134;-84
2023/05/22 02:02:43;;;;;;;30.70;25.75;;;16.80;99.90;;;;;;5066779;28;20127;-84
2023/05/22 02:05:11;;;;;;;29.48;25.35;;;16.80;99.90;;;;;;5069117;28;20082;-84
2023/05/22 02:07:38;;;;;;;34.10;27.95;;;16.70;99.90;;;;;;5049829;28;20079;-85
2023/05/22 02:10:05;;;;;;;29.52;25.67;;;16.70;99.90;;;;;;5068962;28;20048;-83
2023/05/22 02:12:32;;;;;;;31.17;26.92;;;16.70;99.90;;;;;;5067943;28;20040;-84
2023/05/22 02:14:59;;;;;;;29.67;26.40;;;16.70;99.90;;;;;;5069208;28;20088;-84
2023/05/22 02:17:24;;;;;;;32.30;25.75;;;16.70;99.90;;;;;;5067845;28;20094;-83
2023/05/22 02:19:50;;;;;;;33.97;26.92;;;16.70;99.90;;;;;;5067694;28;20083;-84
2023/05/22 02:22:16;;;;;;;30.17;25.55;;;16.70;99.90;;;;;;5051923;28;20051;-84
2023/05/22 02:24:45;;;;;;;30.10;25.02;;;16.70;99.90;;;;;;5051166;28;20036;-84
2023/05/22 02:27:11;;;;;;;30.08;25.95;;;16.70;99.90;;;;;;5067364;28;20039;-84
2023/05/22 02:29:37;;;;;;;31.98;27.83;;;16.70;99.90;;;;;;5064485;28;20059;-83
2023/05/22 02:32:03;;;;;;;30.27;26.33;;;16.70;99.90;;;;;;5069615;28;20051;-84
2023/05/22 02:34:30;;;;;;;29.77;25.80;;;16.60;99.90;;;;;;5066590;28;20036;-84
2023/05/22 02:36:58;;;;;;;31.27;26.52;;;16.60;99.90;;;;;;5084617;28;20090;-84
2023/05/22 02:39:27;;;;;;;30.17;26.30;;;16.60;99.90;;;;;;5051147;28;20075;-84
2023/05/22 02:41:52;;;;;;;31.10;25.83;;;16.60;99.90;;;;;;5067939;28;20072;-84
2023/05/22 02:44:18;;;;;;;31.33;27.13;;;16.60;99.90;;;;;;5068082;28;20087;-84
2023/05/22 02:46:44;;;;;;;29.05;24.20;;;16.60;99.90;;;;;;5068014;28;20444;-85
2023/05/22 02:49:10;;;;;;;27.98;23.23;;;16.70;99.90;;;;;;5064064;28;20123;-84
2023/05/22 02:51:35;;;;;;;30.65;26.02;;;16.60;99.90;;;;;;5066593;28;20235;-84
2023/05/22 02:54:01;;;;;;;31.70;26.15;;;16.60;99.90;;;;;;5071778;28;20042;-84
2023/05/22 02:56:28;;;;;;;30.83;26.25;;;16.60;99.90;;;;;;5071687;28;20555;-83
2023/05/22 02:58:55;;;;;;;29.27;25.50;;;16.60;99.90;;;;;;5070536;28;20051;-84
2023/05/22 03:01:20;;;;;;;30.55;26.65;;;16.60;99.90;;;;;;5070580;28;20040;-84
2023/05/22 03:03:47;;;;;;;33.75;26.75;;;16.60;99.90;;;;;;5088383;28;20448;-83
2023/05/22 03:06:14;;;;;;;35.30;28.27;;;16.60;99.90;;;;;;5089232;28;20040;-84
2023/05/22 03:08:42;;;;;;;30.75;26.52;;;16.50;99.90;;;;;;5089488;28;20143;-84
2023/05/22 03:11:08;;;;;;;31.17;27.27;;;16.30;99.90;;;;;;5069659;28;20036;-84
2023/05/22 03:13:34;;;;;;;31.05;25.92;;;16.60;99.90;;;;;;5070882;28;20051;-84
2023/05/22 03:16:00;;;;;;;29.52;25.67;;;16.50;99.90;;;;;;5070620;28;20139;-84
2023/05/22 03:18:26;;;;;;;30.90;26.73;;;16.50;99.90;;;;;;5050743;28;20046;-84
2023/05/22 03:20:51;;;;;;;30.95;26.67;;;16.50;99.90;;;;;;5071639;28;20130;-84
2023/05/22 03:23:19;;;;;;;29.92;26.55;;;16.70;99.90;;;;;;5069026;28;20039;-84
2023/05/22 03:25:46;;;;;;;30.20;25.98;;;16.50;99.90;;;;;;5069605;28;20052;-84
2023/05/22 03:28:13;;;;;;;29.70;26.42;;;16.50;99.90;;;;;;5067912;28;20066;-84
2023/05/22 03:30:38;;;;;;;31.15;26.98;;;16.60;99.90;;;;;;5070310;28;20040;-84
2023/05/22 03:33:04;;;;;;;29.02;25.50;;;16.60;99.90;;;;;;5087255;28;20410;-84
2023/05/22 03:35:29;;;;;;;32.38;26.15;;;16.60;99.90;;;;;;5066394;28;20081;-84
2023/05/22 03:37:55;;;;;;;28.00;24.95;;;16.60;99.90;;;;;;5085707;28;20080;-84
2023/05/22 03:40:21;;;;;;;27.85;24.85;;;16.50;99.90;;;;;;5070034;28;20044;-84
2023/05/22 03:42:48;;;;;;;28.52;22.90;;;16.60;99.90;;;;;;5087515;28;20389;-84
2023/05/22 03:45:13;;;;;;;31.05;26.45;;;16.50;99.90;;;;;;5087470;28;20047;-84
2023/05/22 03:47:39;;;;;;;30.70;25.75;;;16.60;99.90;;;;;;5067780;28;20398;-84
2023/05/22 03:50:05;;;;;;;29.27;26.00;;;16.50;99.90;;;;;;5085684;28;21808;-84
2023/05/22 03:52:31;;;;;;;27.90;24.90;;;16.60;99.90;;;;;;5089074;28;20510;-85
2023/05/22 03:54:56;;;;;;;27.02;24.15;;;16.50;99.90;;;;;;5087538;28;20043;-85
2023/05/22 03:57:22;;;;;;;29.17;25.52;;;16.60;99.90;;;;;;5071188;28;20440;-85
2023/05/22 03:59:47;;;;;;;28.17;25.25;;;16.60;99.90;;;;;;5070057;28;20502;-84
2023/05/22 04:02:15;;;;;;;30.83;25.85;;;16.80;99.90;;;;;;5086543;28;20446;-84
2023/05/22 04:04:45;;;;;;;28.95;25.80;;;16.60;99.90;;;;;;5068293;28;20052;-84
2023/05/22 04:07:13;;;;;;;28.70;25.75;;;16.60;99.90;;;;;;5067952;28;20059;-85
2023/05/22 04:09:40;;;;;;;30.85;25.60;;;16.60;99.90;;;;;;5068565;28;20043;-84
2023/05/22 04:12:06;;;;;;;32.58;26.17;;;16.60;99.90;;;;;;5053236;28;20044;-84
2023/05/22 04:14:31;;;;;;;29.85;26.63;;;16.60;99.90;;;;;;5071041;28;20397;-85
2023/05/22 04:16:58;;;;;;;30.02;25.42;;;16.60;99.90;;;;;;5068817;28;20044;-85
2023/05/22 04:19:26;;;;;;;29.30;26.05;;;16.60;99.90;;;;;;5066708;28;20177;-85
2023/05/22 04:21:53;;;;;;;29.25;24.60;;;16.60;99.90;;;;;;5077610;28;20079;-85
2023/05/22 04:24:19;;;;;;;29.10;26.00;;;16.60;99.90;;;;;;5067638;28;20055;-85
2023/05/22 04:26:45;;;;;;;31.77;26.30;;;16.60;99.90;;;;;;5088214;28;20048;-85
2023/05/22 04:29:13;;;;;;;30.52;26.98;;;16.70;99.90;;;;;;5068165;28;20036;-84
2023/05/22 04:31:38;;;;;;;30.33;26.20;;;16.60;99.90;;;;;;5063570;28;20085;-85
2023/05/22 04:34:05;;;;;;;31.67;26.98;;;16.70;99.90;;;;;;5068054;28;20060;-85
2023/05/22 04:36:30;;;;;;;29.90;26.35;;;16.70;99.90;;;;;;5068883;28;20040;-85
2023/05/22 04:38:56;;;;;;;30.77;26.73;;;16.90;99.90;;;;;;5068765;28;20375;-85
2023/05/22 04:41:25;;;;;;;30.38;26.15;;;16.70;99.90;;;;;;5087400;28;20098;-85
2023/05/22 04:43:51;;;;;;;28.25;25.08;;;16.60;99.90;;;;;;5067374;28;20051;-85
2023/05/22 04:46:17;;;;;;;28.48;25.55;;;16.70;99.90;;;;;;5086951;28;20051;-84
2023/05/22 04:48:43;;;;;;;28.52;25.48;;;16.90;99.90;;;;;;5069598;28;20051;-85
2023/05/22 04:51:08;;;;;;;31.08;25.98;;;16.80;99.90;;;;;;5068119;28;20406;-85
2023/05/22 04:53:34;;;;;;;27.02;24.13;;;16.90;99.90;;;;;;5086232;28;20121;-84
2023/05/22 04:56:00;;;;;;;29.77;25.55;;;16.90;99.90;;;;;;5087909;28;20493;-84
2023/05/22 04:58:26;;;;;;;29.17;25.95;;;16.80;99.90;;;;;;5068646;28;20036;-85
2023/05/22 05:00:56;;;;;;;26.98;24.13;;;16.80;99.90;;;;;;5069584;28;20047;-84
2023/05/22 05:03:24;;;;;;;28.13;25.15;;;16.80;99.90;;;;;;5051534;28;20126;-85
2023/05/22 05:05:50;;;;;;;30.42;25.00;;;16.80;99.90;;;;;;5067634;28;20048;-85
2023/05/22 05:08:16;;;;;;;28.63;24.13;;;16.80;99.90;;;;;;5067210;28;20044;-84
2023/05/22 05:10:42;;;;;;;28.05;24.90;;;16.80;99.90;;;;;;5065377;28;20044;-84
2023/05/22 05:13:07;;;;;;;28.00;24.98;;;16.80;99.90;;;;;;5069264;28;20398;-84
2023/05/22 05:15:33;;;;;;;26.67;23.35;;;16.70;99.90;;;;;;5068515;28;20052;-84
2023/05/22 05:17:58;;;;;;;32.00;24.45;;;16.80;99.90;;;;;;5067703;28;20044;-84
2023/05/22 05:20:24;;;;;;;25.80;22.63;;;16.70;99.90;;;;;;5047105;28;20036;-83
2023/05/22 05:22:50;;;;;;;27.40;23.30;;;16.70;99.90;;;;;;5064205;28;20075;-85
2023/05/22 05:25:16;;;;;;;26.05;23.25;;;16.70;99.90;;;;;;5068164;28;20048;-85
2023/05/22 05:27:46;;;;;;;29.55;23.25;;;16.80;99.90;;;;;;5087599;28;20044;-85
2023/05/22 05:30:11;;;;;;;26.98;22.05;;;16.80;99.90;;;;;;5066473;28;20093;-85
2023/05/22 05:32:37;;;;;;;25.48;22.95;;;16.80;99.90;;;;;;5072908;28;20048;-85
2023/05/22 05:35:03;;;;;;;24.02;21.45;;;16.80;99.90;;;;;;5050882;28;20037;-84
2023/05/22 05:37:29;;;;;;;26.38;22.95;;;16.80;99.90;;;;;;5062091;28;20038;-85
2023/05/22 05:39:54;;;;;;;24.48;21.85;;;16.90;99.90;;;;;;5071645;28;20054;-85
2023/05/22 05:42:20;;;;;;;26.27;22.80;;;16.90;99.90;;;;;;5089852;28;20047;-84
2023/05/22 05:44:45;;;;;;;25.13;22.52;;;16.90;99.90;;;;;;5108262;28;20040;-85
2023/05/22 05:47:11;;;;;;;25.23;21.42;;;16.90;99.90;;;;;;5073251;28;20146;-85
2023/05/22 05:49:36;;;;;;;25.58;22.85;;;16.90;99.90;;;;;;5090013;28;20469;-85
2023/05/22 05:52:03;;;;;;;24.73;22.05;;;16.90;99.90;;;;;;5087246;28;20052;-84
2023/05/22 05:54:28;;;;;;;24.40;21.77;;;16.90;99.90;;;;;;5068694;28;20048;-85
2023/05/22 05:56:54;;;;;;;23.45;21.05;;;16.90;99.90;;;;;;5053090;28;20051;-85
2023/05/22 05:59:20;;;;;;;25.25;22.52;;;16.80;99.90;;;;;;5052437;28;20043;-84
2023/05/22 06:01:47;;;;;;;25.30;21.98;;;17.00;99.90;;;;;;5067887;28;20343;-85
2023/05/22 06:04:13;;;;;;;23.92;21.45;;;17.00;99.90;;;;;;5086228;28;20052;-85
2023/05/22 06:06:39;;;;;;;28.42;21.63;;;17.00;99.90;;;;;;5069946;28;20048;-85
2023/05/22 06:09:05;;;;;;;25.08;21.70;;;17.00;99.90;;;;;;5051585;28;20047;-85
2023/05/22 06:11:31;;;;;;;24.33;21.75;;;17.00;99.90;;;;;;5052631;28;20044;-84
2023/05/22 06:13:58;;;;;;;25.52;22.52;;;17.00;99.90;;;;;;5052515;28;20036;-85
2023/05/22 06:16:25;;;;;;;24.50;21.90;;;17.10;99.90;;;;;;5069734;28;20138;-85
2023/05/22 06:18:55;;;;;;;24.88;21.30;;;17.20;99.90;;;;;;5065749;28;20032;-85
2023/05/22 06:21:23;;;;;;;24.20;21.60;;;17.10;99.90;;;;;;5051943;28;20040;-83
2023/05/22 06:23:49;;;;;;;23.88;21.13;;;17.20;99.90;;;;;;5069455;28;20093;-85
2023/05/22 06:26:15;;;;;;;22.95;20.52;;;17.10;99.90;;;;;;5070814;28;20043;-84
2023/05/22 06:28:41;;;;;;;24.10;21.60;;;17.10;99.90;;;;;;5073655;28;20046;-84
2023/05/22 06:31:08;;;;;;;23.92;21.40;;;17.30;99.90;;;;;;5073569;28;20171;-84
2023/05/22 06:33:35;;;;;;;24.00;21.50;;;17.20;99.90;;;;;;5056788;28;20040;-84
2023/05/22 06:36:02;;;;;;;25.52;21.48;;;17.20;99.90;;;;;;5071403;28;20778;-84
2023/05/22 06:38:28;;;;;;;24.48;20.75;;;17.30;99.90;;;;;;5056057;28;20482;-85
2023/05/22 06:40:54;;;;;;;23.42;20.65;;;17.40;99.90;;;;;;5072373;28;20032;-86
2023/05/22 06:43:19;;;;;;;23.42;20.20;;;17.40;99.90;;;;;;5072765;28;20043;-86
2023/05/22 06:45:45;;;;;;;21.85;18.75;;;17.50;99.90;;;;;;5073104;28;20070;-84
2023/05/22 06:48:11;;;;;;;22.30;19.95;;;17.70;99.90;;;;;;5072702;28;20048;-85
2023/05/22 06:50:36;;;;;;;21.35;19.08;;;17.80;99.90;;;;;;5090576;28;20139;-85
2023/05/22 06:53:02;;;;;;;22.13;19.70;;;17.70;99.90;;;;;;5071458;28;20052;-86
2023/05/22 06:55:27;;;;;;;21.45;18.38;;;18.00;99.90;;;;;;5071515;28;20048;-85
2023/05/22 06:57:54;;;;;;;25.20;19.90;;;18.00;99.90;;;;;;5070019;28;20052;-87
2023/05/22 07:00:20;;;;;;;19.67;17.70;;;18.20;99.90;;;;;;5053694;28;20155;-86
2023/05/22 07:02:45;;;;;;;21.40;17.08;;;18.20;99.90;;;;;;5072199;28;20054;-85
2023/05/22 07:05:11;;;;;;;20.80;18.65;;;18.30;99.90;;;;;;5072613;28;20055;-85
2023/05/22 07:07:36;;;;;;;20.05;17.90;;;18.30;99.90;;;;;;5054835;28;20059;-85
2023/05/22 07:10:02;;;;;;;20.30;18.20;;;18.40;99.90;;;;;;5089355;28;20058;-85
2023/05/22 07:12:28;;;;;;;19.67;17.65;;;18.40;99.90;;;;;;5072062;28;20066;-85
2023/05/22 07:14:58;;;;;;;19.80;17.77;;;18.40;99.90;;;;;;5071429;28;20093;-85
2023/05/22 07:17:24;;;;;;;20.38;17.67;;;18.70;99.90;;;;;;5070569;28;20044;-86
2023/05/22 07:19:50;;;;;;;21.08;16.73;;;18.50;99.90;;;;;;5053211;28;20036;-86
2023/05/22 07:22:16;;;;;;;19.27;16.65;;;18.60;99.90;;;;;;5053352;28;20562;-85
2023/05/22 07:24:42;;;;;;;18.30;16.38;;;18.60;99.90;;;;;;5052220;28;20079;-85
2023/05/22 07:27:08;;;;;;;17.95;16.05;;;18.60;99.90;;;;;;5070573;28;20413;-86
2023/05/22 07:29:34;;;;;;;18.42;15.48;;;18.70;99.90;;;;;;5069757;28;20052;-85
2023/05/22 07:31:59;;;;;;;17.58;15.40;;;18.50;99.90;;;;;;5070450;28;20123;-86
2023/05/22 07:34:30;;;;;;;17.58;15.75;;;18.50;99.90;;;;;;5055021;28;20044;-85
2023/05/22 07:36:56;;;;;;;16.60;14.90;;;18.40;99.90;;;;;;5071677;28;20054;-86
2023/05/22 07:39:22;;;;;;;17.23;15.43;;;18.40;99.90;;;;;;5071065;28;20048;-86
2023/05/22 07:41:51;;;;;;;17.80;15.18;;;18.40;99.90;;;;;;5071794;28;20094;-86
2023/05/22 07:44:16;;;;;;;17.13;15.48;;;18.40;99.90;;;;;;5070528;28;20060;-86
2023/05/22 07:46:42;;;;;;;17.55;14.43;;;18.40;99.90;;;;;;5054999;28;20056;-85
2023/05/22 07:49:09;;;;;;;15.55;13.98;;;18.30;99.90;;;;;;5071348;28;20128;-85
2023/05/22 07:51:34;;;;;;;17.45;14.60;;;18.40;99.90;;;;;;5071100;28;20066;-85
2023/05/22 07:54:00;;;;;;;17.50;15.10;;;18.40;99.90;;;;;;5054499;28;20386;-80
2023/05/22 07:56:26;;;;;;;16.45;14.70;;;18.30;99.90;;;;;;5089975;28;20413;-85
2023/05/22 07:58:52;;;;;;;16.77;15.05;;;18.30;99.90;;;;;;5070904;28;20048;-85
2023/05/22 08:01:17;;;;;;;15.88;14.27;;;18.30;99.90;;;;;;5071033;28;20043;-85
2023/05/22 08:03:43;;;;;;;16.02;14.43;;;18.30;99.90;;;;;;5071577;28;20044;-83
2023/05/22 08:06:09;;;;;;;15.80;14.15;;;18.30;99.90;;;;;;5071250;28;20043;-84
2023/05/22 08:08:35;;;;;;;15.82;14.02;;;18.20;99.90;;;;;;5071204;28;20105;-84
2023/05/22 08:11:00;;;;;;;17.23;14.23;;;18.30;99.90;;;;;;5052990;28;20048;-84
2023/05/22 08:13:26;;;;;;;15.95;14.07;;;18.10;99.90;;;;;;5088522;28;20259;-84
2023/05/22 08:15:52;;;;;;;15.10;13.52;;;18.10;99.90;;;;;;5068483;28;20054;-87
2023/05/22 08:18:18;;;;;;;15.77;14.13;;;18.30;99.90;;;;;;5085662;28;20071;-85
2023/05/22 08:20:45;;;;;;;14.82;13.35;;;18.10;99.90;;;;;;5071776;28;20384;-86
2023/05/22 08:23:11;;;;;;;14.95;13.35;;;18.10;99.90;;;;;;5087914;28;20076;-86
2023/05/22 08:25:36;;;;;;;17.83;13.73;;;18.30;99.90;;;;;;5064558;28;20072;-85
2023/05/22 08:28:02;;;;;;;16.65;14.20;;;18.10;99.90;;;;;;5067838;28;20054;-84
2023/05/22 08:30:28;;;;;;;14.65;13.15;;;18.10;99.90;;;;;;5088495;28;20115;-86
2023/05/22 08:32:54;;;;;;;14.88;13.15;;;18.10;99.90;;;;;;5090691;28;20413;-85
2023/05/22 08:35:19;;;;;;;15.02;13.13;;;18.10;99.90;;;;;;5082281;28;20207;-85
2023/05/22 08:37:45;;;;;;;15.43;13.35;;;18.10;99.90;;;;;;5073919;28;20044;-84
2023/05/22 08:40:12;;;;;;;15.80;13.20;;;18.20;99.90;;;;;;5071317;28;20047;-84
2023/05/22 08:42:37;;;;;;;13.93;12.48;;;18.20;99.90;;;;;;5070798;28;20054;-83
2023/05/22 08:45:05;;;;;;;14.88;12.63;;;18.30;99.90;;;;;;5087962;28;20122;-84
2023/05/22 08:47:33;;;;;;;17.27;13.10;;;18.30;99.90;;;;;;5088577;28;20052;-84
2023/05/22 08:50:00;;;;;;;14.10;11.70;;;18.30;99.90;;;;;;5068606;28;20493;-84
2023/05/22 08:52:33;;;;;;;15.93;12.00;;;18.40;99.90;;;;;;5085987;28;20126;-83
2023/05/22 08:55:03;;;;;;;14.90;12.02;;;18.60;99.90;;;;;;5086133;28;20044;-83
2023/05/22 08:57:30;;;;;;;15.73;11.57;;;18.70;99.90;;;;;;5086484;28;20066;-83
2023/05/22 08:59:56;;;;;;;14.45;11.05;;;18.80;99.90;;;;;;5084694;28;20494;-84
2023/05/22 09:02:22;;;;;;;12.88;10.93;;;18.60;99.90;;;;;;5085497;28;20130;-82
2023/05/22 09:04:47;;;;;;;15.07;10.73;;;19.00;99.90;;;;;;5053556;28;20124;-83
2023/05/22 09:07:13;;;;;;;13.73;10.68;;;19.20;99.90;;;;;;5087917;28;20154;-82
2023/05/22 09:09:39;;;;;;;14.13;9.73;;;19.30;99.90;;;;;;5067976;28;20048;-83
2023/05/22 09:12:08;;;;;;;11.60;8.77;;;19.20;99.90;;;;;;5070029;28;20417;-84
2023/05/22 09:14:43;;;;;;;13.43;9.70;;;19.30;99.90;;;;;;5069908;28;20097;-85
2023/05/22 09:17:13;;;;;;;13.57;10.45;;;19.40;99.90;;;;;;5070708;28;20048;-86
2023/05/22 09:19:45;;;;;;;14.50;9.60;;;19.30;99.90;;;;;;5070561;28;20048;-86
2023/05/22 09:22:11;;;;;;;15.23;9.02;;;19.60;99.90;;;;;;5087410;28;20050;-86
2023/05/22 09:24:41;;;;;;;13.80;9.45;;;19.60;99.90;;;;;;5067360;28;20051;-85
2023/05/22 09:27:08;;;;;;;13.55;9.32;;;19.70;99.90;;;;;;5053131;28;20486;-85
2023/05/22 09:29:49;;;;;;;14.82;9.98;;;19.80;99.90;;;;;;5088189;28;20040;-85
2023/05/22 09:32:16;;;;;;;13.57;9.30;;;19.80;99.90;;;;;;5069180;28;20044;-85
2023/05/22 09:34:43;;;;;;;17.48;9.95;;;19.90;99.90;;;;;;5053120;28;20494;-81
2023/05/22 09:37:10;;;;;;;17.92;9.50;;;20.00;99.90;;;;;;5069126;28;20124;-85
2023/05/22 09:39:41;;;;;;;14.10;9.38;;;20.00;99.90;;;;;;5067446;28;20044;-86
2023/05/22 09:42:09;;;;;;;15.90;9.27;;;20.20;99.90;;;;;;5066828;28;20059;-85
2023/05/22 09:44:34;;;;;;;13.02;9.07;;;20.10;99.90;;;;;;5069087;28;20040;-84
2023/05/22 09:47:00;;;;;;;12.32;8.98;;;20.10;99.90;;;;;;5069814;28;20105;-85
2023/05/22 09:49:26;;;;;;;15.57;9.30;;;20.10;99.90;;;;;;5052235;28;20048;-83
2023/05/22 09:51:54;;;;;;;15.45;9.32;;;20.30;99.90;;;;;;5058515;28;20044;-84
2023/05/22 09:54:20;;;;;;;15.63;9.15;;;20.40;99.90;;;;;;5087825;28;20108;-84
2023/05/22 09:56:51;;;;;;;14.05;9.23;;;20.30;99.90;;;;;;5084888;28;20040;-84
2023/05/22 09:59:25;;;;;;;13.48;9.25;;;20.40;99.90;;;;;;5070957;28;20514;-85
2023/05/22 10:01:52;;;;;;;15.35;8.82;;;20.40;99.90;;;;;;5073464;28;20344;-85
2023/05/22 10:04:20;;;;;;;18.13;10.13;;;20.50;99.90;;;;;;5073879;28;20043;-85
2023/05/22 10:06:51;;;;;;;13.68;8.85;;;20.90;99.90;;;;;;5077282;28;20039;-85
2023/05/22 10:09:19;;;;;;;16.23;10.55;;;20.90;99.90;;;;;;5079190;28;20122;-86
2023/05/22 10:11:46;;;;;;;16.70;9.38;;;21.20;99.90;;;;;;5070900;28;20048;-85
2023/05/22 10:14:12;;;;;;;16.63;10.05;;;20.80;99.90;;;;;;5070989;28;20051;-85
2023/05/22 10:16:38;;;;;;;15.52;10.18;;;21.20;99.90;;;;;;5072509;28;20048;-84
2023/05/22 10:19:05;;;;;;;15.60;10.27;;;21.20;99.90;;;;;;5072422;28;20391;-86
2023/05/22 10:21:32;;;;;;;11.85;10.30;;;21.50;99.90;;;;;;5089497;28;20042;-85
2023/05/22 10:24:01;;;;;;;14.88;10.45;;;21.40;99.90;;;;;;5090566;28;20071;-87
2023/05/22 10:26:28;;;;;;;12.88;10.70;;;21.60;99.90;;;;;;5089395;28;20494;-86
2023/05/22 10:29:03;;;;;;;17.13;10.35;;;21.70;99.90;;;;;;5072496;28;20063;-85
2023/05/22 10:31:58;;;;;;;14.02;10.13;;;21.90;99.90;;;;;;5073469;28;20063;-86
2023/05/22 10:34:40;;;;;;;15.68;10.73;;;22.00;99.90;;;;;;5072646;28;20051;-88
2023/05/22 10:37:30;;;;;;;12.05;9.93;;;22.20;99.90;;;;;;5072687;28;20541;-85
2023/05/22 10:40:09;;;;;;;15.73;10.93;;;22.30;99.90;;;;;;5090067;28;20087;-84
2023/05/22 10:42:36;;;;;;;13.25;11.00;;;22.40;99.90;;;;;;5036125;28;20091;-85
2023/05/22 10:45:05;;;;;;;15.15;10.27;;;22.30;99.90;;;;;;5070239;28;20127;-82
2023/05/22 10:47:33;;;;;;;12.30;10.20;;;22.30;99.90;;;;;;5086851;28;20056;-88
2023/05/22 10:50:09;;;;;;;13.10;10.32;;;22.40;99.90;;;;;;5090923;28;20040;-86
2023/05/22 10:52:36;;;;;;;14.25;10.23;;;22.60;99.90;;;;;;5089035;28;20144;-88
2023/05/22 10:55:07;;;;;;;16.42;10.93;;;22.50;99.90;;;;;;5055401;28;20093;-87
2023/05/22 10:57:33;;;;;;;13.55;11.40;;;22.50;99.90;;;;;;5055062;28;20070;-87
2023/05/22 11:00:14;;;;;;;14.63;11.05;;;22.30;99.90;;;;;;5073613;28;20196;-88
2023/05/22 11:02:42;;;;;;;15.43;11.17;;;22.40;99.90;;;;;;5044603;28;20040;-87
2023/05/22 11:05:20;;;;;;;13.13;10.93;;;22.30;99.90;;;;;;5072809;28;20066;-87
2023/05/22 11:07:46;;;;;;;12.80;10.80;;;22.50;99.90;;;;;;5089423;28;20712;-87
2023/05/22 11:10:12;;;;;;;12.93;10.35;;;22.60;99.90;;;;;;5072548;28;20058;-87
2023/05/22 11:12:38;;;;;;;14.02;10.52;;;22.70;99.90;;;;;;5089781;28;20044;-87
2023/05/22 11:15:10;;;;;;;13.35;10.70;;;22.80;99.90;;;;;;5070538;28;20044;-87
2023/05/22 11:17:41;;;;;;;13.13;10.88;;;22.90;99.90;;;;;;5071060;28;20044;-87
2023/05/22 11:20:21;;;;;;;13.43;11.07;;;23.00;99.90;;;;;;5089529;28;20079;-86
2023/05/22 11:23:00;;;;;;;14.63;11.55;;;23.10;99.90;;;;;;5071210;28;20054;-87
2023/05/22 11:25:27;;;;;;;12.35;10.68;;;23.10;99.90;;;;;;5071593;28;20055;-85
2023/05/22 11:27:54;;;;;;;11.60;9.80;;;23.30;99.90;;;;;;5070788;28;20058;-86
2023/05/22 11:30:23;;;;;;;12.40;9.95;;;23.60;99.90;;;;;;5062991;28;20060;-86
2023/05/22 11:32:49;;;;;;;13.88;10.88;;;23.70;99.90;;;;;;5052015;28;20044;-86
2023/05/22 11:35:16;;;;;;;15.00;10.82;;;23.90;99.90;;;;;;5056692;28;20036;-86
2023/05/22 11:37:42;;;;;;;11.55;10.10;;;24.00;99.90;;;;;;5088474;28;20040;-86
2023/05/22 11:40:09;;;;;;;13.80;10.07;;;24.10;99.90;;;;;;5072047;28;20067;-86
2023/05/22 11:42:36;;;;;;;12.10;10.80;;;24.20;99.90;;;;;;5069412;28;20040;-86
2023/05/22 11:45:03;;;;;;;12.95;10.90;;;24.20;99.90;;;;;;5087069;28;20510;-84
2023/05/22 11:47:29;;;;;;;12.88;10.68;;;24.30;99.90;;;;;;5088144;28;20510;-85
2023/05/22 11:49:59;;;;;;;12.35;10.85;;;24.50;99.90;;;;;;5070189;28;20044;-85
2023/05/22 11:52:29;;;;;;;12.38;10.77;;;24.30;99.90;;;;;;5068125;28;20787;-84
2023/05/22 11:54:55;;;;;;;15.40;11.07;;;24.40;99.90;;;;;;5087733;28;20170;-83
2023/05/22 11:57:21;;;;;;;13.35;10.65;;;24.40;99.90;;;;;;5088860;28;20492;-85
2023/05/22 11:59:47;;;;;;;12.60;11.27;;;24.40;99.90;;;;;;5071418;28;20460;-84
2023/05/22 12:02:16;;;;;;;23.33;11.82;;;24.30;99.90;;;;;;5089338;28;20044;-84
2023/05/22 12:05:14;;;;;;;;;;;;;;;;;;;;;
2023/05/22 12:07:40;;;;;;;14.20;12.63;;;24.60;99.90;;;;;;5082824;28;20402;-85
2023/05/22 12:10:42;;;;;;;15.68;12.52;;;24.90;99.90;;;;;;5051434;28;20036;-86
2023/05/22 12:13:08;;;;;;;14.60;11.95;;;24.70;99.90;;;;;;5013009;28;20070;-85
2023/05/22 12:15:33;;;;;;;12.80;11.52;;;25.00;99.90;;;;;;5051118;28;20127;-85
2023/05/22 12:17:59;;;;;;;15.07;12.13;;;24.80;99.90;;;;;;5069055;28;20423;-86
2023/05/22 12:20:29;;;;;;;14.07;12.43;;;24.60;99.90;;;;;;5070357;28;20040;-85
2023/05/22 12:22:55;;;;;;;14.10;12.60;;;24.70;99.90;;;;;;5070442;28;20048;-86
2023/05/22 12:25:23;;;;;;;13.63;12.15;;;24.70;99.90;;;;;;5054221;28;20125;-87
2023/05/22 12:27:50;;;;;;;13.80;12.38;;;24.80;99.90;;;;;;5051790;28;20102;-86
2023/05/22 12:30:16;;;;;;;15.82;14.32;;;24.90;99.90;;;;;;5069053;28;20040;-87
2023/05/22 12:32:48;;;;;;;13.15;11.00;;;25.00;99.90;;;;;;5068502;28;20517;-87